createdAt,value
2022-12-17T00:00:04.063Z,13.60
2022-12-17T00:02:49.485Z,13.60
2022-12-17T00:05:35.059Z,13.60
2022-12-17T00:08:20.684Z,13.60
2022-12-17T00:11:05.895Z,13.60
2022-12-17T00:13:51.221Z,13.70
2022-12-17T00:16:37.178Z,13.60
2022-12-17T00:19:22.540Z,13.60
2022-12-17T00:22:08.032Z,13.70
2022-12-17T00:24:53.389Z,13.70
2022-12-17T00:27:41.869Z,13.60
2022-12-17T00:30:28.131Z,13.60
2022-12-17T00:33:13.361Z,13.40
2022-12-17T00:35:58.636Z,13.40
2022-12-17T00:38:44.178Z,13.40
2022-12-17T00:41:29.600Z,13.30
2022-12-17T00:44:15.172Z,13.20
2022-12-17T00:47:00.846Z,13.20
2022-12-17T00:49:46.281Z,13.10
2022-12-17T00:52:31.618Z,13.10
2022-12-17T00:55:17.215Z,13.10
2022-12-17T00:58:02.946Z,13.00
2022-12-17T01:00:48.437Z,13.00
2022-12-17T01:03:34.134Z,13.00
2022-12-17T01:06:23.876Z,13.00
2022-12-17T01:09:09.265Z,13.00
2022-12-17T01:11:56.630Z,13.00
2022-12-17T01:14:43.488Z,13.00
2022-12-17T01:17:29.328Z,13.20
2022-12-17T01:20:14.998Z,13.10
2022-12-17T01:23:00.400Z,13.10
2022-12-17T01:25:46.198Z,13.20
2022-12-17T01:28:31.742Z,13.20
2022-12-17T01:31:17.246Z,13.30
2022-12-17T01:34:02.500Z,13.30
2022-12-17T01:36:48.042Z,13.30
2022-12-17T01:39:33.454Z,13.10
2022-12-17T01:42:19.222Z,13.30
2022-12-17T01:45:09.206Z,13.10
2022-12-17T01:48:08.853Z,13.10
2022-12-17T01:51:05.038Z,13.10
2022-12-17T01:53:54.653Z,13.20
2022-12-17T01:56:42.493Z,13.30
2022-12-17T01:59:28.848Z,13.20
2022-12-17T02:02:14.572Z,13.30
2022-12-17T02:05:00.243Z,13.30
2022-12-17T02:07:59.687Z,13.30
2022-12-17T02:10:51.070Z,13.40
2022-12-17T02:13:58.924Z,13.40
2022-12-17T02:16:50.444Z,13.40
2022-12-17T02:20:03.328Z,13.50
2022-12-17T02:23:17.777Z,13.50
2022-12-17T02:26:20.696Z,13.60
2022-12-17T02:29:08.713Z,13.60
2022-12-17T02:32:01.146Z,13.50
2022-12-17T02:34:46.657Z,13.50
2022-12-17T02:37:32.081Z,13.60
2022-12-17T02:40:18.077Z,13.60
2022-12-17T02:43:07.060Z,13.60
2022-12-17T02:45:52.830Z,13.60
2022-12-17T02:48:38.699Z,13.60
2022-12-17T02:51:24.729Z,13.70
2022-12-17T02:54:12.368Z,13.70
2022-12-17T02:56:57.882Z,13.60
2022-12-17T02:59:43.329Z,13.70
2022-12-17T03:02:28.636Z,13.80
2022-12-17T03:05:43.307Z,13.70
2022-12-17T03:08:21.621Z,13.70
2022-12-17T03:11:07.398Z,13.70
2022-12-17T03:13:52.607Z,13.80
2022-12-17T03:16:38.445Z,13.80
2022-12-17T03:19:24.063Z,13.70
2022-12-17T03:22:09.815Z,13.80
2022-12-17T03:24:55.137Z,13.80
2022-12-17T03:27:40.572Z,13.80
2022-12-17T03:30:26.524Z,13.70
2022-12-17T03:33:12.189Z,13.80
2022-12-17T03:35:57.678Z,13.80
2022-12-17T03:38:43.534Z,13.80
2022-12-17T03:41:29.099Z,13.80
2022-12-17T03:44:14.741Z,13.80
2022-12-17T03:47:00.237Z,13.70
2022-12-17T03:49:45.782Z,13.70
2022-12-17T03:52:31.373Z,13.80
2022-12-17T03:55:16.635Z,13.80
2022-12-17T03:58:02.071Z,13.80
2022-12-17T04:00:47.522Z,13.80
2022-12-17T04:03:33.181Z,13.80
2022-12-17T04:06:18.866Z,13.80
2022-12-17T04:09:04.278Z,13.80
2022-12-17T04:11:49.972Z,13.80
2022-12-17T04:14:35.117Z,13.80
2022-12-17T04:17:21.647Z,13.80
2022-12-17T04:20:07.164Z,13.80
2022-12-17T04:22:54.141Z,13.80
2022-12-17T04:25:39.674Z,13.80
2022-12-17T04:28:25.154Z,13.70
2022-12-17T04:31:10.567Z,13.70
2022-12-17T04:33:58.034Z,13.60
2022-12-17T04:36:43.315Z,13.60
2022-12-17T04:39:28.819Z,13.50
2022-12-17T04:42:14.462Z,13.40
2022-12-17T04:45:00.016Z,13.40
2022-12-17T04:47:45.198Z,13.40
2022-12-17T04:50:30.645Z,13.40
2022-12-17T04:53:23.650Z,13.30
2022-12-17T04:56:09.921Z,13.30
2022-12-17T04:58:55.161Z,13.30
2022-12-17T05:01:45.029Z,13.30
2022-12-17T05:04:30.749Z,13.30
2022-12-17T05:07:16.082Z,13.20
2022-12-17T05:10:03.145Z,13.20
2022-12-17T05:12:48.632Z,13.20
2022-12-17T05:15:34.301Z,13.10
2022-12-17T05:18:27.666Z,13.20
2022-12-17T05:21:13.102Z,13.20
2022-12-17T05:23:58.368Z,13.10
2022-12-17T05:26:45.962Z,13.10
2022-12-17T05:29:32.036Z,13.10
2022-12-17T05:32:17.274Z,13.20
2022-12-17T05:35:02.495Z,13.10
2022-12-17T05:37:47.588Z,13.10
2022-12-17T05:40:32.717Z,13.00
2022-12-17T05:43:31.152Z,12.90
2022-12-17T05:46:16.704Z,13.00
2022-12-17T05:49:02.060Z,12.90
2022-12-17T05:51:48.035Z,12.80
2022-12-17T05:54:35.502Z,12.90
2022-12-17T05:57:20.993Z,12.90
2022-12-17T06:00:06.710Z,13.00
2022-12-17T06:02:52.453Z,13.00
2022-12-17T06:05:37.901Z,13.00
2022-12-17T06:08:27.748Z,13.10
2022-12-17T06:11:18.362Z,13.10
2022-12-17T06:14:03.620Z,13.10
2022-12-17T06:16:53.401Z,13.10
2022-12-17T06:19:38.929Z,13.10
2022-12-17T06:22:24.013Z,13.10
2022-12-17T06:25:09.558Z,13.00
2022-12-17T06:27:55.066Z,13.10
2022-12-17T06:30:40.580Z,13.00
2022-12-17T06:33:28.327Z,13.10
2022-12-17T06:36:22.074Z,13.00
2022-12-17T06:39:08.228Z,13.20
2022-12-17T06:42:00.332Z,13.20
2022-12-17T06:44:49.524Z,13.20
2022-12-17T06:47:34.796Z,13.20
2022-12-17T06:50:19.998Z,13.20
2022-12-17T06:53:05.637Z,13.20
2022-12-17T06:55:51.248Z,13.20
2022-12-17T06:58:36.666Z,13.30
2022-12-17T07:01:22.449Z,13.40
2022-12-17T07:04:07.619Z,13.40
2022-12-17T07:06:55.645Z,13.40
2022-12-17T07:09:41.205Z,13.40
2022-12-17T07:12:26.760Z,13.50
2022-12-17T07:15:12.448Z,13.50
2022-12-17T07:17:57.945Z,13.50
2022-12-17T07:20:43.429Z,13.50
2022-12-17T07:23:29.074Z,13.60
2022-12-17T07:26:15.850Z,13.60
2022-12-17T07:29:01.571Z,13.60
2022-12-17T07:31:47.202Z,13.60
2022-12-17T07:34:32.525Z,13.70
2022-12-17T07:37:20.604Z,13.70
2022-12-17T07:40:06.306Z,13.70
2022-12-17T07:42:51.521Z,13.80
2022-12-17T07:45:36.961Z,13.80
2022-12-17T07:48:22.802Z,13.80
2022-12-17T07:51:08.841Z,13.80
2022-12-17T07:53:54.546Z,13.80
2022-12-17T07:56:40.185Z,13.70
2022-12-17T07:59:25.840Z,13.60
2022-12-17T08:02:11.406Z,13.60
2022-12-17T08:04:56.829Z,13.70
2022-12-17T08:07:42.423Z,13.70
2022-12-17T08:10:28.037Z,13.80
2022-12-17T08:13:18.524Z,13.90
2022-12-17T08:16:04.526Z,14.00
2022-12-17T08:18:49.752Z,14.10
2022-12-17T08:21:35.486Z,14.20
2022-12-17T08:24:20.726Z,14.20
2022-12-17T08:27:06.264Z,14.40
2022-12-17T08:29:51.657Z,14.40
2022-12-17T08:32:37.513Z,14.40
2022-12-17T08:35:23.313Z,14.40
2022-12-17T08:38:13.013Z,14.30
2022-12-17T08:41:18.306Z,14.30
2022-12-17T08:44:03.512Z,14.30
2022-12-17T08:46:49.221Z,14.30
2022-12-17T08:49:34.735Z,14.50
2022-12-17T08:52:20.174Z,14.60
2022-12-17T08:55:05.845Z,14.70
2022-12-17T08:57:51.349Z,14.70
2022-12-17T09:00:36.785Z,14.80
2022-12-17T09:03:22.709Z,14.80
2022-12-17T09:06:10.479Z,14.80
2022-12-17T09:08:56.072Z,14.90
2022-12-17T09:11:41.434Z,14.90
2022-12-17T09:14:27.097Z,15.10
2022-12-17T09:17:12.714Z,15.30
2022-12-17T09:19:58.215Z,15.50
2022-12-17T09:22:43.889Z,15.70
2022-12-17T09:25:29.359Z,15.70
2022-12-17T09:28:21.554Z,15.60
2022-12-17T09:31:07.256Z,15.50
2022-12-17T09:33:53.424Z,15.50
2022-12-17T09:36:38.717Z,15.40
2022-12-17T09:39:24.290Z,15.50
2022-12-17T09:42:19.821Z,15.40
2022-12-17T09:45:08.406Z,15.40
2022-12-17T09:47:56.974Z,15.30
2022-12-17T09:50:42.444Z,15.30
2022-12-17T09:53:43.225Z,15.30
2022-12-17T09:56:30.342Z,15.20
2022-12-17T09:59:15.889Z,15.20
2022-12-17T10:02:01.424Z,15.20
2022-12-17T10:04:57.049Z,15.30
2022-12-17T10:07:45.608Z,15.30
2022-12-17T10:10:38.093Z,15.30
2022-12-17T10:13:35.074Z,15.30
2022-12-17T10:16:21.302Z,15.30
2022-12-17T10:19:08.136Z,15.30
2022-12-17T10:21:56.590Z,15.30
2022-12-17T10:24:42.079Z,15.30
2022-12-17T10:27:29.325Z,15.30
2022-12-17T10:30:14.632Z,15.50
2022-12-17T10:33:00.500Z,15.50
2022-12-17T10:35:55.239Z,15.70
2022-12-17T10:38:48.867Z,15.80
2022-12-17T10:41:46.789Z,15.90
2022-12-17T10:44:39.865Z,16.00
2022-12-17T10:47:30.497Z,16.00
2022-12-17T10:50:20.856Z,15.90
2022-12-17T10:53:07.425Z,15.80
2022-12-17T10:55:53.718Z,15.80
2022-12-17T10:58:46.468Z,15.70
2022-12-17T11:01:44.639Z,15.70
2022-12-17T11:04:48.644Z,15.70
2022-12-17T11:07:43.627Z,15.80
2022-12-17T11:10:39.193Z,15.80
2022-12-17T11:13:46.613Z,15.80
2022-12-17T11:16:51.422Z,15.80
2022-12-17T11:19:42.754Z,15.80
2022-12-17T11:22:56.549Z,15.80
2022-12-17T11:26:01.915Z,15.70
2022-12-17T11:28:49.102Z,15.60
2022-12-17T11:31:37.412Z,15.50
2022-12-17T11:34:37.725Z,15.60
2022-12-17T11:37:34.028Z,15.60
2022-12-17T11:40:43.502Z,15.70
2022-12-17T11:43:38.721Z,15.80
2022-12-17T11:46:58.579Z,16.00
2022-12-17T11:50:10.424Z,16.00
2022-12-17T11:53:12.378Z,16.20
2022-12-17T11:56:25.918Z,16.40
2022-12-17T11:59:18.911Z,16.60
2022-12-17T12:02:39.872Z,16.50
2022-12-17T12:05:46.174Z,16.70
2022-12-17T12:08:42.348Z,16.70
2022-12-17T12:11:39.879Z,16.70
2022-12-17T12:14:44.127Z,16.50
2022-12-17T12:18:03.317Z,16.50
2022-12-17T12:21:04.796Z,16.50
2022-12-17T12:24:20.821Z,16.50
2022-12-17T12:27:17.953Z,16.60
2022-12-17T12:30:23.909Z,16.80
2022-12-17T12:33:42.693Z,16.70
2022-12-17T12:36:30.611Z,16.90
2022-12-17T12:39:17.224Z,16.90
2022-12-17T12:42:28.159Z,17.00
2022-12-17T12:45:34.144Z,17.00
2022-12-17T12:48:32.894Z,16.90
2022-12-17T12:51:37.646Z,16.70
2022-12-17T12:54:40.012Z,16.90
2022-12-17T12:57:54.425Z,16.90
2022-12-17T13:00:49.427Z,17.10
2022-12-17T13:03:47.472Z,17.10
2022-12-17T13:06:36.479Z,17.20
2022-12-17T13:09:34.197Z,17.10
2022-12-17T13:12:04.792Z,17.10
2022-12-17T13:15:07.148Z,17.00
2022-12-17T13:17:37.933Z,17.10
2022-12-17T13:20:22.210Z,17.00
2022-12-17T13:22:50.451Z,17.00
2022-12-17T13:25:22.947Z,16.80
2022-12-17T13:27:50.596Z,16.80
2022-12-17T13:30:17.401Z,16.70
2022-12-17T13:32:58.921Z,16.70
2022-12-17T13:35:37.779Z,16.70
2022-12-17T13:38:18.138Z,16.60
2022-12-17T13:41:10.424Z,16.60
2022-12-17T13:43:44.051Z,16.80
2022-12-17T13:46:21.060Z,16.70
2022-12-17T13:48:57.650Z,16.80
2022-12-17T13:51:28.624Z,16.70
2022-12-17T13:54:00.353Z,16.80
2022-12-17T13:56:37.680Z,16.70
2022-12-17T13:59:09.607Z,16.70
2022-12-17T14:01:46.768Z,16.60
2022-12-17T14:04:28.938Z,16.60
2022-12-17T14:07:00.941Z,16.50
2022-12-17T14:09:37.461Z,16.40
2022-12-17T14:12:25.142Z,16.40
2022-12-17T14:15:02.008Z,16.40
2022-12-17T14:17:50.578Z,16.30
2022-12-17T14:20:19.527Z,16.30
2022-12-17T14:22:51.835Z,16.20
2022-12-17T14:25:34.372Z,16.20
2022-12-17T14:28:04.283Z,16.10
2022-12-17T14:30:35.396Z,16.10
2022-12-17T14:33:02.311Z,16.00
2022-12-17T14:35:36.150Z,16.00
2022-12-17T14:38:04.110Z,16.00
2022-12-17T14:40:31.312Z,15.90
2022-12-17T14:43:00.859Z,15.90
2022-12-17T14:45:29.073Z,15.80
2022-12-17T14:47:58.873Z,15.70
2022-12-17T14:50:36.924Z,15.80
2022-12-17T14:53:23.998Z,15.70
2022-12-17T14:55:57.418Z,15.70
2022-12-17T14:58:26.248Z,15.60
2022-12-17T15:01:04.877Z,15.60
2022-12-17T15:03:34.295Z,15.60
2022-12-17T15:06:15.124Z,15.50
2022-12-17T15:08:50.474Z,15.50
2022-12-17T15:11:20.301Z,15.50
2022-12-17T15:13:50.320Z,15.40
2022-12-17T15:16:21.473Z,15.30
2022-12-17T15:18:48.333Z,15.30
2022-12-17T15:21:16.962Z,15.30
2022-12-17T15:23:45.436Z,15.20
2022-12-17T15:26:15.161Z,15.10
2022-12-17T15:28:42.936Z,15.10
2022-12-17T15:31:12.381Z,15.00
2022-12-17T15:33:39.890Z,14.90
2022-12-17T15:36:07.708Z,14.90
2022-12-17T15:38:34.922Z,14.80
2022-12-17T15:41:22.582Z,14.80
2022-12-17T15:43:49.799Z,14.70
2022-12-17T15:46:16.697Z,14.60
2022-12-17T15:48:49.910Z,14.50
2022-12-17T15:51:19.967Z,14.50
2022-12-17T15:53:48.089Z,14.50
2022-12-17T15:56:26.130Z,14.50
2022-12-17T15:58:53.374Z,14.40
2022-12-17T16:01:20.800Z,14.30
2022-12-17T16:03:47.819Z,14.20
2022-12-17T16:06:14.711Z,14.20
2022-12-17T16:08:41.563Z,14.10
2022-12-17T16:11:13.275Z,14.10
2022-12-17T16:13:40.235Z,14.10
2022-12-17T16:16:08.168Z,14.00
2022-12-17T16:18:36.669Z,13.90
2022-12-17T16:21:05.525Z,14.00
2022-12-17T16:23:32.855Z,13.90
2022-12-17T16:26:01.741Z,13.90
2022-12-17T16:28:29.572Z,13.80
2022-12-17T16:30:59.659Z,13.80
2022-12-17T16:33:29.953Z,13.80
2022-12-17T16:36:01.113Z,13.80
2022-12-17T16:38:28.485Z,13.70
2022-12-17T16:40:57.243Z,13.60
2022-12-17T16:43:28.608Z,13.70
2022-12-17T16:45:55.527Z,13.70
2022-12-17T16:48:24.207Z,13.70
2022-12-17T16:50:51.662Z,13.60
2022-12-17T16:53:19.088Z,13.50
2022-12-17T16:55:48.144Z,13.50
2022-12-17T16:58:17.063Z,13.60
2022-12-17T17:00:46.301Z,13.40
2022-12-17T17:03:13.323Z,13.50
2022-12-17T17:05:40.699Z,13.40
2022-12-17T17:08:07.651Z,13.40
2022-12-17T17:10:36.991Z,13.50
2022-12-17T17:13:04.312Z,13.50
2022-12-17T17:15:31.401Z,13.50
2022-12-17T17:18:01.805Z,13.50
2022-12-17T17:20:32.577Z,13.60
2022-12-17T17:23:00.128Z,13.60
2022-12-17T17:25:38.810Z,13.50
2022-12-17T17:28:14.094Z,13.50
2022-12-17T17:30:40.919Z,13.60
2022-12-17T17:33:07.681Z,13.60
2022-12-17T17:35:34.467Z,13.60
2022-12-17T17:38:01.281Z,13.60
2022-12-17T17:40:28.277Z,13.60
2022-12-17T17:42:55.057Z,13.40
2022-12-17T17:45:21.969Z,13.50
2022-12-17T17:47:48.909Z,13.40
2022-12-17T17:50:15.725Z,13.40
2022-12-17T17:52:42.722Z,13.30
2022-12-17T17:55:09.694Z,13.30
2022-12-17T17:57:36.502Z,13.20
2022-12-17T18:00:04.138Z,13.20
2022-12-17T18:02:31.329Z,13.20
2022-12-17T18:04:58.270Z,13.20
2022-12-17T18:07:26.724Z,13.10
2022-12-17T18:09:54.649Z,13.10
2022-12-17T18:12:41.043Z,13.10
2022-12-17T18:15:17.759Z,13.00
2022-12-17T18:17:49.658Z,13.10
2022-12-17T18:20:19.866Z,13.00
2022-12-17T18:22:47.250Z,13.00
2022-12-17T18:25:15.998Z,13.10
2022-12-17T18:27:42.935Z,13.00
2022-12-17T18:30:10.400Z,13.00
2022-12-17T18:32:37.577Z,13.00
2022-12-17T18:35:05.123Z,13.00
2022-12-17T18:37:32.029Z,13.00
2022-12-17T18:39:58.940Z,13.00
2022-12-17T18:42:45.507Z,12.90
2022-12-17T18:45:14.018Z,13.00
2022-12-17T18:47:42.617Z,12.90
2022-12-17T18:50:09.928Z,12.90
2022-12-17T18:55:20.816Z,12.90
2022-12-17T18:57:47.750Z,12.90
2022-12-17T19:00:15.023Z,13.10
2022-12-17T19:02:42.065Z,13.10
2022-12-17T19:05:09.652Z,13.20
2022-12-17T19:07:36.510Z,13.10
2022-12-17T19:10:03.938Z,13.10
2022-12-17T19:12:30.812Z,13.20
2022-12-17T19:14:57.671Z,13.20
2022-12-17T19:17:24.665Z,13.10
2022-12-17T19:19:51.658Z,13.10
2022-12-17T19:22:18.479Z,13.00
2022-12-17T19:24:45.522Z,12.90
2022-12-17T19:27:12.405Z,12.80
2022-12-17T19:29:39.275Z,12.90
2022-12-17T19:32:06.165Z,12.70
2022-12-17T19:34:35.051Z,12.70
2022-12-17T19:37:01.869Z,12.70
2022-12-17T19:39:28.704Z,12.50
2022-12-17T19:41:55.632Z,12.50
2022-12-17T19:44:22.645Z,12.30
2022-12-17T19:46:49.611Z,12.30
2022-12-17T19:49:18.013Z,12.30
2022-12-17T19:51:45.377Z,12.30
2022-12-17T19:54:15.233Z,12.30
2022-12-17T19:56:44.268Z,12.20
2022-12-17T19:59:13.287Z,12.10
2022-12-17T20:01:46.056Z,12.10
2022-12-17T20:04:14.987Z,12.20
2022-12-17T20:06:42.583Z,11.90
2022-12-17T20:09:09.529Z,12.00
2022-12-17T20:11:36.885Z,11.90
2022-12-17T20:14:06.782Z,12.00
2022-12-17T20:16:40.107Z,11.90
2022-12-17T20:19:10.464Z,11.80
2022-12-17T20:21:37.354Z,11.80
2022-12-17T20:24:04.601Z,11.80
2022-12-17T20:26:31.638Z,11.70
2022-12-17T20:28:59.333Z,11.80
2022-12-17T20:31:27.222Z,11.70
2022-12-17T20:33:54.586Z,11.70
2022-12-17T20:36:22.748Z,11.70
2022-12-17T20:38:49.801Z,11.70
2022-12-17T20:41:20.243Z,11.60
2022-12-17T20:43:48.063Z,11.60
2022-12-17T20:46:16.054Z,11.60
2022-12-17T20:48:43.879Z,11.60
2022-12-17T20:51:14.374Z,11.60
2022-12-17T20:53:41.745Z,11.60
2022-12-17T20:56:14.766Z,11.60
2022-12-17T20:58:43.336Z,11.50
2022-12-17T21:01:17.005Z,11.50
2022-12-17T21:03:44.276Z,11.50
2022-12-17T21:06:12.582Z,11.50
2022-12-17T21:08:46.209Z,11.40
2022-12-17T21:11:21.086Z,11.50
2022-12-17T21:13:49.013Z,11.50
2022-12-17T21:16:19.338Z,11.30
2022-12-17T21:18:46.224Z,11.30
2022-12-17T21:21:19.684Z,11.30
2022-12-17T21:23:47.788Z,11.40
2022-12-17T21:26:26.624Z,11.30
2022-12-17T21:28:54.938Z,11.40
2022-12-17T21:31:27.626Z,11.20
2022-12-17T21:33:57.981Z,11.20
2022-12-17T21:36:27.589Z,11.20
2022-12-17T21:38:54.870Z,11.20
2022-12-17T21:41:27.641Z,11.20
2022-12-17T21:44:00.119Z,11.20
2022-12-17T21:46:28.366Z,11.10
2022-12-17T21:48:57.483Z,11.20
2022-12-17T21:51:25.283Z,11.20
2022-12-17T21:53:54.285Z,11.10
2022-12-17T21:56:21.502Z,11.10
2022-12-17T21:58:49.717Z,11.10
2022-12-17T22:01:23.355Z,11.00
2022-12-17T22:03:53.885Z,11.10
2022-12-17T22:06:24.139Z,11.00
2022-12-17T22:09:04.761Z,10.90
2022-12-17T22:11:40.635Z,11.00
2022-12-17T22:14:18.694Z,11.00
2022-12-17T22:16:49.468Z,10.90
2022-12-17T22:19:22.827Z,11.00
2022-12-17T22:21:51.674Z,11.00
2022-12-17T22:24:24.869Z,11.00
2022-12-17T22:26:52.284Z,10.90
2022-12-17T22:29:37.682Z,11.00
2022-12-17T22:32:25.574Z,11.00
2022-12-17T22:35:25.698Z,10.90
2022-12-17T22:41:48.973Z,10.90
2022-12-17T22:44:31.971Z,10.80
2022-12-17T22:44:41.584Z,10.80
2022-12-17T22:46:17.303Z,10.80
2022-12-17T22:48:44.485Z,10.70
2022-12-17T22:51:13.737Z,10.80
2022-12-17T22:53:46.018Z,10.80
2022-12-17T22:56:27.787Z,10.80
2022-12-17T22:59:00.010Z,10.80
2022-12-17T23:01:27.160Z,10.80
2022-12-17T23:03:58.826Z,10.70
2022-12-17T23:06:26.413Z,10.80
2022-12-17T23:08:53.766Z,10.70
2022-12-17T23:11:23.781Z,10.70
2022-12-17T23:13:51.162Z,10.70
2022-12-17T23:16:18.691Z,10.70
2022-12-17T23:18:46.357Z,10.60
2022-12-17T23:21:19.186Z,10.60
2022-12-17T23:23:46.573Z,10.60
2022-12-17T23:26:19.338Z,10.50
2022-12-17T23:28:47.015Z,10.50
2022-12-17T23:31:16.688Z,10.50
2022-12-17T23:33:44.781Z,10.50
2022-12-17T23:36:17.353Z,10.40
2022-12-17T23:38:44.689Z,10.40
2022-12-17T23:41:22.737Z,10.40
2022-12-17T23:43:50.570Z,10.40
2022-12-17T23:46:19.118Z,10.30
2022-12-17T23:48:47.213Z,10.30
2022-12-17T23:51:16.227Z,10.30
2022-12-17T23:53:43.926Z,10.30
2022-12-17T23:56:19.096Z,10.30
2022-12-17T23:58:47.394Z,10.30
